createdAt,value
2023-05-15T00:02:39.985Z,2.80
2023-05-15T00:05:42.271Z,2.40
2023-05-15T00:08:44.847Z,2.40
2023-05-15T00:11:47.053Z,2.58
2023-05-15T00:14:49.269Z,2.65
2023-05-15T00:17:51.441Z,2.85
2023-05-15T00:20:53.673Z,2.83
2023-05-15T00:23:56.979Z,2.53
2023-05-15T00:27:00.120Z,3.05
2023-05-15T00:30:02.323Z,2.33
2023-05-15T00:33:04.529Z,2.83
2023-05-15T00:36:07.277Z,2.35
2023-05-15T00:39:09.574Z,2.37
2023-05-15T00:42:12.099Z,2.30
2023-05-15T00:45:15.027Z,2.83
2023-05-15T00:48:17.220Z,2.53
2023-05-15T00:51:19.442Z,2.75
2023-05-15T00:54:21.647Z,2.58
2023-05-15T00:57:24.307Z,2.37
2023-05-15T01:00:26.604Z,2.45
2023-05-15T01:03:29.106Z,2.37
2023-05-15T01:06:31.831Z,2.87
2023-05-15T01:09:34.558Z,3.15
2023-05-15T01:12:38.434Z,2.97
2023-05-15T01:15:41.255Z,3.12
2023-05-15T01:18:43.528Z,2.97
2023-05-15T01:21:57.856Z,2.42
2023-05-15T01:25:11.839Z,2.65
2023-05-15T01:28:19.985Z,2.65
2023-05-15T01:31:23.305Z,3.30
2023-05-15T01:34:32.059Z,3.28
2023-05-15T01:37:35.290Z,3.17
2023-05-15T01:40:37.810Z,3.05
2023-05-15T01:43:42.808Z,2.87
2023-05-15T01:46:46.731Z,2.67
2023-05-15T01:49:51.101Z,2.95
2023-05-15T01:52:56.885Z,2.70
2023-05-15T01:55:59.384Z,3.20
2023-05-15T01:59:03.042Z,3.53
2023-05-15T02:02:06.121Z,3.15
2023-05-15T02:05:09.061Z,3.10
2023-05-15T02:08:12.452Z,3.08
2023-05-15T02:11:15.386Z,3.62
2023-05-15T02:14:17.780Z,3.00
2023-05-15T02:17:21.547Z,2.83
2023-05-15T02:20:23.859Z,3.92
2023-05-15T02:23:26.108Z,3.45
2023-05-15T02:26:59.578Z,3.30
2023-05-15T02:30:13.785Z,3.50
2023-05-15T02:33:45.027Z,3.55
2023-05-15T02:36:48.674Z,3.50
2023-05-15T02:39:54.357Z,3.50
2023-05-15T02:42:57.189Z,3.67
2023-05-15T02:45:59.728Z,3.50
2023-05-15T02:49:02.302Z,3.67
2023-05-15T02:52:05.097Z,3.50
2023-05-15T02:55:07.962Z,3.78
2023-05-15T02:58:10.442Z,3.80
2023-05-15T03:01:12.716Z,2.97
2023-05-15T03:04:15.239Z,4.10
2023-05-15T03:07:17.450Z,3.72
2023-05-15T03:10:21.253Z,4.28
2023-05-15T03:13:23.516Z,3.58
2023-05-15T03:16:26.882Z,4.05
2023-05-15T03:19:29.075Z,3.53
2023-05-15T03:22:31.609Z,4.40
2023-05-15T03:25:33.801Z,4.03
2023-05-15T03:28:36.005Z,4.28
2023-05-15T03:31:38.206Z,4.32
2023-05-15T03:34:41.165Z,4.62
2023-05-15T03:37:43.763Z,4.30
2023-05-15T03:40:45.942Z,4.18
2023-05-15T03:43:48.169Z,4.00
2023-05-15T03:46:50.373Z,4.00
2023-05-15T03:49:52.598Z,4.30
2023-05-15T03:52:54.845Z,4.50
2023-05-15T03:55:57.055Z,5.43
2023-05-15T03:58:59.476Z,4.62
2023-05-15T04:02:05.521Z,4.85
2023-05-15T04:05:09.037Z,4.95
2023-05-15T04:08:12.512Z,4.70
2023-05-15T04:11:15.120Z,5.20
2023-05-15T04:14:17.284Z,5.53
2023-05-15T04:17:19.463Z,4.78
2023-05-15T04:20:23.621Z,5.03
2023-05-15T04:23:25.990Z,4.43
2023-05-15T04:26:28.392Z,4.37
2023-05-15T04:29:30.675Z,4.30
2023-05-15T04:32:33.987Z,4.87
2023-05-15T04:35:36.220Z,4.65
2023-05-15T04:38:38.439Z,5.50
2023-05-15T04:41:40.654Z,4.90
2023-05-15T04:44:42.976Z,4.55
2023-05-15T04:47:45.284Z,4.32
2023-05-15T04:50:47.572Z,4.55
2023-05-15T04:53:49.727Z,4.18
2023-05-15T04:56:51.874Z,3.92
2023-05-15T04:59:54.033Z,5.03
2023-05-15T05:02:56.270Z,4.07
2023-05-15T05:05:58.461Z,4.20
2023-05-15T05:09:00.621Z,4.32
2023-05-15T05:12:02.908Z,4.05
2023-05-15T05:15:05.616Z,4.57
2023-05-15T05:18:07.960Z,5.18
2023-05-15T05:21:10.797Z,4.87
2023-05-15T05:24:13.068Z,4.60
2023-05-15T05:27:15.323Z,4.43
2023-05-15T05:30:17.635Z,3.78
2023-05-15T05:33:20.068Z,4.20
2023-05-15T05:36:22.270Z,5.05
2023-05-15T05:39:24.497Z,4.43
2023-05-15T05:42:26.984Z,4.97
2023-05-15T05:45:29.646Z,5.22
2023-05-15T05:48:31.939Z,5.15
2023-05-15T05:51:37.053Z,5.25
2023-05-15T05:54:39.273Z,5.70
2023-05-15T05:57:41.588Z,5.05
2023-05-15T06:00:43.732Z,5.20
2023-05-15T06:03:46.756Z,5.53
2023-05-15T06:06:50.168Z,5.72
2023-05-15T06:09:52.458Z,5.03
2023-05-15T06:12:54.754Z,5.22
2023-05-15T06:15:56.926Z,5.37
2023-05-15T06:18:59.112Z,5.22
2023-05-15T06:22:01.390Z,5.03
2023-05-15T06:25:05.237Z,5.20
2023-05-15T06:28:07.532Z,4.82
2023-05-15T06:31:10.487Z,4.12
2023-05-15T06:34:12.741Z,4.50
2023-05-15T06:37:14.967Z,5.07
2023-05-15T06:40:17.159Z,5.50
2023-05-15T06:43:19.352Z,4.87
2023-05-15T06:46:21.722Z,5.12
2023-05-15T06:49:24.574Z,5.30
2023-05-15T06:52:26.922Z,5.30
2023-05-15T06:55:29.122Z,4.90
2023-05-15T06:58:31.287Z,4.90
2023-05-15T07:01:33.607Z,5.03
2023-05-15T07:04:36.148Z,4.87
2023-05-15T07:07:38.384Z,4.25
2023-05-15T07:10:40.557Z,4.80
2023-05-15T07:13:42.726Z,4.45
2023-05-15T07:16:47.153Z,4.00
2023-05-15T07:19:49.419Z,3.78
2023-05-15T07:22:56.369Z,3.80
2023-05-15T07:25:59.212Z,4.53
2023-05-15T07:29:01.345Z,4.95
2023-05-15T07:32:03.807Z,4.28
2023-05-15T07:35:06.314Z,4.20
2023-05-15T07:38:08.486Z,4.10
2023-05-15T07:41:10.651Z,4.18
2023-05-15T07:44:13.101Z,4.00
2023-05-15T07:47:15.782Z,3.53
2023-05-15T07:50:18.251Z,4.00
2023-05-15T07:53:20.428Z,3.62
2023-05-15T07:56:23.300Z,3.30
2023-05-15T07:59:25.704Z,3.97
2023-05-15T08:02:28.127Z,3.75
2023-05-15T08:05:30.463Z,3.17
2023-05-15T08:08:32.683Z,3.62
2023-05-15T08:11:35.620Z,4.07
2023-05-15T08:14:38.245Z,3.85
2023-05-15T08:17:41.073Z,4.70
2023-05-15T08:20:43.454Z,3.95
2023-05-15T08:23:45.633Z,3.97
2023-05-15T08:26:47.800Z,4.05
2023-05-15T08:29:50.175Z,4.05
2023-05-15T08:32:52.601Z,3.60
2023-05-15T08:35:54.893Z,3.62
2023-05-15T08:38:57.226Z,2.80
2023-05-15T08:42:15.482Z,3.10
2023-05-15T08:45:17.869Z,2.65
2023-05-15T08:48:25.310Z,2.83
2023-05-15T08:51:27.663Z,3.28
2023-05-15T08:54:30.112Z,3.60
2023-05-15T08:57:33.255Z,3.30
2023-05-15T09:00:36.073Z,2.80
2023-05-15T09:03:38.368Z,3.20
2023-05-15T09:06:41.404Z,3.08
2023-05-15T09:09:45.234Z,3.67
2023-05-15T09:12:47.467Z,3.33
2023-05-15T09:15:50.753Z,2.47
2023-05-15T09:18:53.922Z,3.33
2023-05-15T09:21:56.193Z,3.72
2023-05-15T09:24:58.346Z,2.97
2023-05-15T09:28:01.140Z,3.05
2023-05-15T09:31:04.860Z,2.90
2023-05-15T09:34:09.426Z,2.55
2023-05-15T09:37:27.687Z,2.55
2023-05-15T09:40:33.322Z,10.50
2023-05-15T09:43:37.607Z,5.50
2023-05-15T09:46:39.911Z,3.70
2023-05-15T09:49:45.441Z,3.12
2023-05-15T09:52:47.659Z,5.78
2023-05-15T09:55:50.401Z,4.03
2023-05-15T09:59:01.398Z,3.10
2023-05-15T10:02:03.724Z,3.83
2023-05-15T10:05:06.054Z,2.90
2023-05-15T10:08:08.348Z,2.80
2023-05-15T10:11:10.682Z,3.30
2023-05-15T10:14:14.049Z,3.85
2023-05-15T10:17:16.763Z,5.25
2023-05-15T10:20:26.729Z,5.65
2023-05-15T10:23:30.528Z,3.58
2023-05-15T10:26:36.307Z,7.75
2023-05-15T10:29:38.569Z,3.12
2023-05-15T10:32:42.035Z,4.20
2023-05-15T10:35:44.505Z,3.05
2023-05-15T10:38:48.288Z,3.03
2023-05-15T10:41:50.857Z,1.80
2023-05-15T10:44:54.029Z,2.00
2023-05-15T10:47:56.660Z,1.85
2023-05-15T10:51:01.399Z,2.80
2023-05-15T10:54:03.933Z,2.47
2023-05-15T10:57:06.806Z,2.17
2023-05-15T11:00:24.252Z,2.65
2023-05-15T11:03:47.983Z,1.92
2023-05-15T11:07:11.812Z,2.20
2023-05-15T11:10:29.291Z,1.95
2023-05-15T11:14:05.878Z,1.95
2023-05-15T11:17:12.438Z,1.80
2023-05-15T11:20:14.712Z,2.05
2023-05-15T11:23:21.720Z,2.10
2023-05-15T11:26:33.169Z,1.98
2023-05-15T11:29:35.488Z,8.90
2023-05-15T11:33:00.219Z,4.28
2023-05-15T11:36:05.344Z,2.60
2023-05-15T11:39:11.659Z,1.77
2023-05-15T11:42:14.162Z,1.67
2023-05-15T11:45:16.337Z,1.40
2023-05-15T11:48:18.825Z,1.27
2023-05-15T11:51:24.094Z,1.20
2023-05-15T11:54:26.769Z,1.85
2023-05-15T11:57:29.346Z,1.30
2023-05-15T12:00:31.983Z,1.30
2023-05-15T12:03:36.165Z,1.85
2023-05-15T12:06:38.641Z,3.87
2023-05-15T12:09:40.819Z,1.87
2023-05-15T12:12:44.325Z,2.80
2023-05-15T12:15:47.230Z,1.60
2023-05-15T12:18:49.966Z,1.20
2023-05-15T12:21:52.203Z,0.90
2023-05-15T12:24:58.736Z,1.48
2023-05-15T12:28:02.123Z,1.30
2023-05-15T12:31:04.561Z,1.10
2023-05-15T12:34:06.913Z,1.62
2023-05-15T12:37:14.784Z,1.27
2023-05-15T12:40:21.024Z,1.37
2023-05-15T12:43:26.836Z,1.50
2023-05-15T12:46:32.246Z,1.45
2023-05-15T12:49:37.395Z,1.27
2023-05-15T12:52:40.705Z,1.20
2023-05-15T12:55:45.392Z,1.33
2023-05-15T12:58:47.986Z,1.00
2023-05-15T13:01:50.597Z,1.73
2023-05-15T13:04:52.740Z,1.12
2023-05-15T13:07:55.046Z,1.10
2023-05-15T13:10:59.912Z,1.15
2023-05-15T13:14:09.129Z,1.15
2023-05-15T13:17:11.345Z,1.40
2023-05-15T13:20:13.571Z,1.27
2023-05-15T13:23:18.109Z,1.00
2023-05-15T13:26:20.792Z,1.30
2023-05-15T13:29:23.072Z,1.25
2023-05-15T13:32:25.312Z,1.20
2023-05-15T13:35:28.118Z,1.33
2023-05-15T13:38:30.589Z,1.77
2023-05-15T13:41:32.796Z,2.20
2023-05-15T13:44:37.524Z,1.70
2023-05-15T13:47:40.864Z,1.60
2023-05-15T13:50:45.569Z,2.05
2023-05-15T13:53:47.851Z,1.05
2023-05-15T13:56:50.132Z,1.20
2023-05-15T13:59:52.458Z,1.23
2023-05-15T14:02:54.655Z,1.10
2023-05-15T14:05:56.855Z,1.00
2023-05-15T14:08:59.008Z,1.10
2023-05-15T14:12:01.207Z,1.05
2023-05-15T14:15:03.586Z,0.90
2023-05-15T14:18:05.888Z,1.20
2023-05-15T14:21:08.174Z,0.93
2023-05-15T14:24:10.493Z,1.10
2023-05-15T14:27:12.692Z,0.70
2023-05-15T14:30:14.996Z,1.00
2023-05-15T14:33:17.180Z,1.40
2023-05-15T14:36:19.452Z,1.75
2023-05-15T14:39:21.604Z,0.85
2023-05-15T14:42:23.839Z,1.27
2023-05-15T14:45:26.962Z,1.62
2023-05-15T14:48:30.060Z,1.23
2023-05-15T14:51:32.354Z,1.40
2023-05-15T14:54:35.728Z,1.10
2023-05-15T14:57:38.619Z,1.42
2023-05-15T15:00:40.924Z,1.25
2023-05-15T15:03:43.280Z,1.48
2023-05-15T15:06:47.694Z,1.12
2023-05-15T15:09:49.928Z,1.27
2023-05-15T15:12:52.263Z,0.95
2023-05-15T15:15:54.472Z,1.25
2023-05-15T15:18:57.586Z,1.25
2023-05-15T15:21:59.987Z,1.10
2023-05-15T15:25:02.285Z,1.40
2023-05-15T15:28:04.641Z,1.15
2023-05-15T15:31:06.861Z,1.35
2023-05-15T15:34:10.175Z,1.17
2023-05-15T15:37:12.352Z,1.45
2023-05-15T15:40:14.602Z,1.50
2023-05-15T15:43:17.017Z,1.10
2023-05-15T15:46:19.280Z,1.10
2023-05-15T15:49:21.608Z,1.10
2023-05-15T15:52:23.854Z,1.30
2023-05-15T15:55:26.072Z,1.50
2023-05-15T15:58:28.968Z,1.30
2023-05-15T16:01:31.272Z,1.48
2023-05-15T16:04:34.394Z,1.15
2023-05-15T16:07:36.613Z,1.37
2023-05-15T16:10:39.212Z,1.00
2023-05-15T16:13:41.442Z,1.30
2023-05-15T16:16:43.644Z,1.40
2023-05-15T16:19:45.945Z,1.02
2023-05-15T16:22:48.106Z,2.00
2023-05-15T16:25:50.303Z,1.33
2023-05-15T16:28:52.558Z,1.20
2023-05-15T16:31:56.328Z,1.27
2023-05-15T16:34:58.521Z,1.20
2023-05-15T16:38:00.674Z,1.10
2023-05-15T16:41:03.433Z,1.48
2023-05-15T16:44:10.739Z,1.73
2023-05-15T16:47:12.956Z,1.70
2023-05-15T16:50:15.165Z,1.90
2023-05-15T16:53:17.676Z,2.05
2023-05-15T16:56:19.919Z,1.90
2023-05-15T16:59:22.454Z,1.70
2023-05-15T17:02:24.743Z,1.52
2023-05-15T17:05:27.347Z,1.90
2023-05-15T17:08:29.548Z,1.65
2023-05-15T17:11:31.732Z,1.77
2023-05-15T17:14:34.111Z,1.60
2023-05-15T17:17:36.334Z,1.70
2023-05-15T17:20:38.581Z,2.05
2023-05-15T17:23:40.912Z,1.77
2023-05-15T17:26:43.103Z,1.58
2023-05-15T17:29:45.905Z,1.33
2023-05-15T17:32:48.251Z,1.75
2023-05-15T17:35:50.864Z,1.60
2023-05-15T17:38:53.091Z,3.90
2023-05-15T17:41:55.310Z,4.80
2023-05-15T17:44:57.842Z,10.65
2023-05-15T17:48:03.725Z,4.07
2023-05-15T17:51:06.000Z,1.55
2023-05-15T17:54:08.155Z,1.27
2023-05-15T17:57:10.648Z,1.90
2023-05-15T18:00:13.457Z,1.70
2023-05-15T18:03:16.344Z,2.65
2023-05-15T18:06:18.601Z,2.20
2023-05-15T18:09:23.144Z,1.98
2023-05-15T18:12:26.258Z,2.67
2023-05-15T18:15:28.824Z,1.73
2023-05-15T18:18:31.148Z,1.62
2023-05-15T18:21:34.598Z,2.10
2023-05-15T18:24:38.566Z,2.35
2023-05-15T18:27:40.975Z,3.28
2023-05-15T18:30:45.418Z,2.12
2023-05-15T18:33:47.576Z,5.62
2023-05-15T18:36:52.084Z,3.85
2023-05-15T18:39:58.749Z,2.55
2023-05-15T18:43:01.033Z,1.85
2023-05-15T18:46:03.984Z,1.77
2023-05-15T18:49:06.237Z,1.98
2023-05-15T18:52:08.810Z,1.73
2023-05-15T18:55:12.563Z,2.20
2023-05-15T18:58:14.859Z,1.75
2023-05-15T19:01:17.170Z,2.05
2023-05-15T19:04:20.043Z,4.03
2023-05-15T19:07:22.249Z,3.80
2023-05-15T19:10:24.558Z,3.53
2023-05-15T19:13:29.867Z,3.00
2023-05-15T19:16:32.982Z,2.35
2023-05-15T19:19:35.284Z,2.75
2023-05-15T19:22:37.447Z,2.47
2023-05-15T19:25:39.633Z,1.83
2023-05-15T19:28:41.919Z,2.00
2023-05-15T19:31:45.651Z,1.40
2023-05-15T19:34:48.877Z,1.48
2023-05-15T19:37:51.078Z,1.70
2023-05-15T19:40:53.267Z,1.20
2023-05-15T19:43:55.533Z,1.40
2023-05-15T19:46:57.820Z,1.65
2023-05-15T19:50:00.003Z,1.30
2023-05-15T19:53:02.160Z,1.77
2023-05-15T19:56:04.708Z,1.75
2023-05-15T19:59:06.914Z,2.15
2023-05-15T20:02:10.562Z,2.20
2023-05-15T20:05:12.956Z,1.62
2023-05-15T20:08:17.191Z,1.98
2023-05-15T20:11:19.489Z,1.80
2023-05-15T20:14:21.697Z,2.17
2023-05-15T20:17:23.902Z,2.70
2023-05-15T20:20:27.029Z,1.90
2023-05-15T20:23:29.650Z,2.00
2023-05-15T20:26:31.885Z,2.00
2023-05-15T20:29:34.126Z,2.03
2023-05-15T20:32:36.908Z,1.92
2023-05-15T20:35:39.195Z,1.73
2023-05-15T20:38:41.628Z,2.40
2023-05-15T20:41:43.804Z,2.25
2023-05-15T20:44:46.249Z,2.15
2023-05-15T20:47:49.324Z,2.30
2023-05-15T20:50:53.101Z,2.72
2023-05-15T20:53:56.111Z,3.17
2023-05-15T20:56:58.274Z,3.30
2023-05-15T21:00:00.456Z,2.30
2023-05-15T21:03:02.934Z,3.22
2023-05-15T21:06:05.405Z,2.25
2023-05-15T21:09:07.641Z,2.60
2023-05-15T21:12:10.040Z,2.60
2023-05-15T21:15:12.360Z,2.40
2023-05-15T21:18:14.566Z,2.60
2023-05-15T21:21:16.869Z,2.55
2023-05-15T21:24:19.055Z,2.28
2023-05-15T21:27:21.246Z,1.70
2023-05-15T21:30:23.485Z,1.95
2023-05-15T21:33:25.875Z,1.65
2023-05-15T21:36:28.066Z,1.60
2023-05-15T21:39:30.253Z,2.70
2023-05-15T21:42:32.461Z,2.60
2023-05-15T21:45:34.648Z,1.92
2023-05-15T21:48:36.832Z,2.12
2023-05-15T21:51:38.981Z,2.15
2023-05-15T21:54:41.153Z,1.48
2023-05-15T21:57:43.369Z,1.62
2023-05-15T22:00:45.967Z,1.30
2023-05-15T22:03:48.430Z,1.15
2023-05-15T22:06:51.039Z,1.40
2023-05-15T22:09:53.254Z,1.67
2023-05-15T22:13:02.755Z,1.30
2023-05-15T22:16:05.292Z,1.20
2023-05-15T22:19:11.663Z,1.25
2023-05-15T22:22:20.848Z,1.60
2023-05-15T22:25:23.302Z,1.70
2023-05-15T22:28:25.618Z,1.60
2023-05-15T22:31:28.491Z,1.90
2023-05-15T22:34:30.719Z,2.10
2023-05-15T22:37:32.994Z,1.50
2023-05-15T22:40:35.173Z,3.87
2023-05-15T22:43:37.670Z,3.08
2023-05-15T22:46:40.215Z,2.25
2023-05-15T22:49:42.348Z,3.47
2023-05-15T22:52:44.488Z,10.85
2023-05-15T22:55:46.756Z,10.02
2023-05-15T22:58:49.360Z,5.82
2023-05-15T23:01:51.619Z,4.45
2023-05-15T23:04:53.928Z,4.55
2023-05-15T23:08:14.487Z,4.57
2023-05-15T23:11:16.668Z,3.80
2023-05-15T23:14:18.835Z,3.33
2023-05-15T23:17:21.021Z,4.00
2023-05-15T23:20:23.261Z,3.20
2023-05-15T23:23:25.586Z,2.35
2023-05-15T23:26:27.838Z,2.87
2023-05-15T23:29:30.087Z,2.65
2023-05-15T23:32:32.300Z,2.42
2023-05-15T23:35:34.517Z,2.47
2023-05-15T23:38:36.670Z,2.37
2023-05-15T23:41:38.845Z,2.00
2023-05-15T23:44:41.018Z,2.42
2023-05-15T23:47:43.278Z,1.85
2023-05-15T23:50:45.577Z,2.45
2023-05-15T23:53:49.168Z,2.25
2023-05-15T23:56:51.314Z,2.10
2023-05-15T23:59:53.471Z,2.62
